Time;durP1;ratioP1;P1;durP2;ratioP2;P2;SDS_P1;SDS_P2;PMS_P1;PMS_P2;Temp;Humidity;BMP_temperature;BMP_pressure;BME280_temperature;BME280_humidity;BME280_pressure;Samples;Min_cycle;Max_cycle;Signal;HPM_P1;HPM_P2
2022/10/22 00:09:51;;;;;;;2.05;0.70;;;15.40;99.90;;;;;;20708613;28;20045;-39
2022/10/22 00:19:52;;;;;;;5.57;1.70;;;15.30;99.90;;;;;;20706362;28;20108;-39
2022/10/22 00:29:53;;;;;;;2.83;1.20;;;15.40;99.90;;;;;;20729984;28;20042;-39
2022/10/22 00:39:54;;;;;;;2.95;1.05;;;15.30;99.90;;;;;;20724167;28;20063;-39
2022/10/22 00:49:57;;;;;;;3.10;1.02;;;15.30;99.90;;;;;;20717119;28;20045;-38
2022/10/22 00:59:58;;;;;;;7.38;1.83;;;15.30;99.90;;;;;;20730197;28;20494;-39
2022/10/22 01:10:08;;;;;;;2.15;0.70;;;15.20;99.90;;;;;;20721990;28;20050;-39
2022/10/22 01:20:23;;;;;;;2.20;1.17;;;15.10;99.90;;;;;;20740719;28;20565;-39
2022/10/22 01:30:25;;;;;;;1.65;0.88;;;15.10;99.90;;;;;;20741525;28;20747;-39
2022/10/22 01:40:27;;;;;;;1.88;1.15;;;15.10;99.90;;;;;;20730430;28;20102;-39
2022/10/22 01:50:43;;;;;;;2.17;0.93;;;15.10;99.90;;;;;;20757079;28;20049;-39
2022/10/22 02:01:06;;;;;;;3.60;0.50;;;15.20;99.90;;;;;;20739498;28;20858;-39
2022/10/22 02:11:07;;;;;;;2.22;0.80;;;15.30;99.90;;;;;;20720405;28;20108;-39
2022/10/22 02:21:08;;;;;;;2.95;0.60;;;15.20;99.90;;;;;;20731844;28;20050;-39
2022/10/22 02:31:18;;;;;;;2.80;0.82;;;15.10;99.90;;;;;;20746547;28;20363;-39
2022/10/22 02:41:19;;;;;;;3.08;0.80;;;15.00;99.90;;;;;;20725428;28;20538;-39
2022/10/22 02:51:20;;;;;;;2.97;1.23;;;14.90;99.90;;;;;;20745733;28;20045;-38
2022/10/22 03:01:21;;;;;;;5.43;1.70;;;14.70;99.90;;;;;;20733170;28;20061;-39
2022/10/22 03:11:22;;;;;;;3.85;0.70;;;14.70;99.90;;;;;;20734201;28;20107;-39
2022/10/22 03:21:34;;;;;;;1.77;1.00;;;14.60;99.90;;;;;;20710288;28;20050;-39
2022/10/22 03:31:35;;;;;;;8.27;1.73;;;14.50;99.90;;;;;;20739339;28;21919;-39
2022/10/22 03:41:36;;;;;;;1.38;0.60;;;14.40;99.90;;;;;;20716332;28;20042;-39
2022/10/22 03:51:37;;;;;;;2.03;0.95;;;14.30;99.90;;;;;;20725838;28;20100;-39
2022/10/22 04:01:38;;;;;;;11.93;0.93;;;14.30;99.90;;;;;;20739104;28;20053;-39
2022/10/22 04:11:39;;;;;;;2.30;1.33;;;14.20;99.90;;;;;;20740632;28;20526;-39
2022/10/22 04:21:40;;;;;;;2.40;1.70;;;14.20;99.90;;;;;;20718719;28;20442;-39
2022/10/22 04:31:41;;;;;;;3.28;0.82;;;14.20;99.90;;;;;;20720462;28;20041;-39
2022/10/22 04:41:42;;;;;;;2.38;1.08;;;14.30;99.90;;;;;;20739313;28;20049;-38
2022/10/22 04:51:43;;;;;;;5.13;1.60;;;14.30;99.90;;;;;;20751882;28;20053;-39
2022/10/22 05:01:44;;;;;;;2.80;1.15;;;14.30;99.90;;;;;;20739296;28;20057;-39
2022/10/22 05:11:48;;;;;;;4.90;0.82;;;14.20;99.90;;;;;;20741327;28;20096;-39
2022/10/22 05:21:51;;;;;;;2.08;0.75;;;14.10;99.90;;;;;;20740152;28;20124;-39
2022/10/22 05:31:52;;;;;;;4.78;0.82;;;14.10;99.90;;;;;;20747525;28;20061;-39
2022/10/22 05:41:53;;;;;;;1.92;0.70;;;14.00;99.90;;;;;;20740140;28;20500;-39
2022/10/22 05:51:54;;;;;;;2.22;1.08;;;13.90;99.90;;;;;;20731994;28;20493;-39
2022/10/22 06:01:55;;;;;;;2.97;1.42;;;13.90;99.90;;;;;;20731471;28;20057;-39
2022/10/22 06:11:57;;;;;;;10.00;0.90;;;13.90;99.90;;;;;;20724684;28;20057;-39
2022/10/22 06:21:58;;;;;;;1.83;0.90;;;13.80;99.90;;;;;;20746208;28;20145;-39
2022/10/22 06:31:59;;;;;;;2.90;1.10;;;13.90;99.90;;;;;;20724443;28;20057;-39
2022/10/22 06:42:00;;;;;;;2.15;1.10;;;13.90;99.90;;;;;;20722899;28;20050;-38
2022/10/22 06:52:01;;;;;;;4.78;2.20;;;13.90;99.90;;;;;;20734963;28;20046;-39
2022/10/22 07:02:02;;;;;;;3.67;1.35;;;13.90;99.90;;;;;;20735843;28;20042;-39
2022/10/22 07:12:03;;;;;;;1.95;0.73;;;14.00;99.90;;;;;;20713648;28;20041;-39
2022/10/22 07:22:04;;;;;;;5.43;0.98;;;14.10;99.90;;;;;;20730558;28;20098;-39
2022/10/22 07:32:05;;;;;;;3.13;1.35;;;14.20;99.90;;;;;;20726755;28;21021;-39
2022/10/22 07:42:06;;;;;;;2.00;0.65;;;14.30;99.90;;;;;;20724827;28;20460;-39
2022/10/22 07:52:07;;;;;;;3.65;1.30;;;14.40;99.90;;;;;;20720789;28;20042;-39
2022/10/22 08:02:10;;;;;;;1.67;0.75;;;14.70;99.90;;;;;;20721241;28;20418;-39
2022/10/22 08:12:11;;;;;;;2.15;0.77;;;14.60;99.90;;;;;;20723743;28;20037;-39
2022/10/22 08:22:12;;;;;;;6.45;1.40;;;14.80;99.90;;;;;;20718530;28;20057;-39
2022/10/22 08:32:13;;;;;;;3.10;0.82;;;15.00;99.90;;;;;;20720634;28;20054;-39
2022/10/22 08:42:37;;;;;;;1.40;0.50;;;15.30;99.90;;;;;;20717064;28;20532;-39
2022/10/22 08:52:42;;;;;;;3.95;0.85;;;15.40;99.90;;;;;;20727591;28;20234;-39
2022/10/22 09:02:46;;;;;;;1.63;0.70;;;15.60;99.90;;;;;;20714921;28;20399;-39
2022/10/22 09:12:48;;;;;;;2.58;0.40;;;15.70;99.90;;;;;;20722911;28;20053;-39
2022/10/22 09:22:59;;;;;;;5.90;0.60;;;15.80;99.90;;;;;;20716537;28;20041;-39
2022/10/22 09:33:09;;;;;;;2.88;1.00;;;16.10;99.90;;;;;;20732154;28;20199;-39
2022/10/22 09:43:13;;;;;;;1.83;0.77;;;16.30;99.90;;;;;;20720848;28;20045;-39
2022/10/22 09:53:33;;;;;;;3.78;1.00;;;16.60;99.90;;;;;;20730961;28;20053;-39
2022/10/22 10:03:34;;;;;;;2.40;1.50;;;16.50;99.90;;;;;;20722414;28;20877;-39
2022/10/22 10:13:41;;;;;;;2.08;1.10;;;16.60;99.90;;;;;;20737226;28;20108;-39
2022/10/22 10:23:52;;;;;;;1.93;0.80;;;16.60;99.90;;;;;;20725370;28;20417;-38
2022/10/22 10:34:21;;;;;;;1.63;0.80;;;16.60;99.90;;;;;;20721266;28;20139;-39
2022/10/22 10:44:39;;;;;;;1.50;1.05;;;16.80;99.90;;;;;;20714407;28;20701;-39
2022/10/22 10:54:46;;;;;;;5.60;1.02;;;17.40;99.90;;;;;;20733607;28;20968;-39
2022/10/22 11:05:16;;;;;;;1.90;0.97;;;17.20;99.90;;;;;;20732695;28;20501;-39
2022/10/22 11:15:23;;;;;;;4.88;1.58;;;17.50;99.90;;;;;;20717134;28;20057;-39
2022/10/22 11:25:30;;;;;;;1.23;0.40;;;18.10;99.90;;;;;;20722792;28;21821;-39
2022/10/22 11:35:39;;;;;;;1.37;0.53;;;18.90;99.90;;;;;;20735202;28;20675;-36
2022/10/22 11:45:41;;;;;;;1.33;0.50;;;19.20;99.90;;;;;;20728639;28;20045;-36
2022/10/22 11:56:08;;;;;;;3.83;1.35;;;19.50;99.90;;;;;;20736874;28;20405;-36
2022/10/22 12:06:14;;;;;;;2.90;0.85;;;18.90;99.90;;;;;;20718600;28;20046;-36
2022/10/22 12:16:15;;;;;;;2.53;0.80;;;18.00;99.90;;;;;;20722062;28;20053;-36
2022/10/22 12:26:29;;;;;;;1.58;0.70;;;18.10;99.90;;;;;;20729319;28;20509;-37
2022/10/22 12:36:33;;;;;;;5.30;1.35;;;19.40;99.90;;;;;;20709384;28;20823;-37
2022/10/22 12:46:34;;;;;;;3.20;0.70;;;19.80;99.90;;;;;;20727852;28;20756;-37
2022/10/22 12:56:37;;;;;;;2.13;0.70;;;19.90;99.90;;;;;;20715189;28;20042;-37
2022/10/22 13:06:43;;;;;;;2.22;0.85;;;19.40;99.90;;;;;;20725743;28;20997;-37
2022/10/22 13:17:14;;;;;;;2.30;1.17;;;19.10;99.90;;;;;;20739013;28;20064;-37
2022/10/22 13:27:15;;;;;;;6.50;1.42;;;19.30;99.90;;;;;;20733628;28;20116;-37
2022/10/22 13:37:16;;;;;;;4.43;1.70;;;19.10;99.90;;;;;;20732990;28;20053;-37
2022/10/22 13:47:26;;;;;;;3.47;0.98;;;18.70;99.90;;;;;;20742898;28;20099;-37
2022/10/22 13:57:27;;;;;;;2.05;0.68;;;19.20;99.90;;;;;;20737260;28;20702;-37
2022/10/22 14:07:28;;;;;;;6.65;1.50;;;19.70;99.90;;;;;;20729295;28;20042;-37
2022/10/22 14:17:31;;;;;;;2.13;0.60;;;19.60;99.90;;;;;;20741575;28;20058;-37
2022/10/22 14:27:32;;;;;;;1.98;0.63;;;20.10;99.90;;;;;;20716010;28;20875;-37
2022/10/22 14:37:33;;;;;;;2.90;0.75;;;19.50;99.90;;;;;;20730982;28;20618;-37
2022/10/22 14:47:34;;;;;;;10.27;1.77;;;18.50;99.90;;;;;;20753220;28;20057;-36
2022/10/22 14:57:35;;;;;;;1.40;0.60;;;17.90;99.90;;;;;;20735497;28;20052;-36
2022/10/22 15:07:37;;;;;;;5.63;1.77;;;17.80;99.90;;;;;;20727633;28;20037;-36
2022/10/22 15:17:38;;;;;;;2.78;1.20;;;17.80;99.90;;;;;;20726458;28;20430;-37
2022/10/22 15:27:39;;;;;;;2.25;0.70;;;17.60;99.90;;;;;;20724193;28;20046;-37
2022/10/22 15:37:40;;;;;;;3.50;1.17;;;17.60;99.90;;;;;;20736256;28;20104;-37
2022/10/22 15:47:44;;;;;;;1.90;0.60;;;17.20;99.90;;;;;;20737017;28;20636;-36
2022/10/22 15:57:45;;;;;;;2.65;0.93;;;17.10;99.90;;;;;;20730047;28;20569;-36
2022/10/22 16:07:46;;;;;;;3.55;0.90;;;17.00;99.90;;;;;;20714524;28;20104;-36
2022/10/22 16:17:47;;;;;;;2.65;1.02;;;16.60;99.90;;;;;;20713018;28;20517;-38
2022/10/22 16:27:49;;;;;;;2.08;0.60;;;16.40;99.90;;;;;;20731793;28;20042;-38
2022/10/22 16:37:50;;;;;;;2.47;1.17;;;16.00;99.90;;;;;;20741243;28;20118;-38
2022/10/22 16:47:51;;;;;;;2.50;0.88;;;15.80;99.90;;;;;;20745685;28;20041;-38
2022/10/22 16:57:52;;;;;;;2.03;0.68;;;15.60;99.90;;;;;;20742447;28;20076;-38
2022/10/22 17:07:53;;;;;;;3.58;1.30;;;15.50;99.90;;;;;;20733065;28;20559;-38
2022/10/22 17:17:55;;;;;;;1.55;0.80;;;15.30;99.90;;;;;;20733783;28;20116;-39
2022/10/22 17:27:56;;;;;;;4.80;1.15;;;15.10;99.90;;;;;;20727926;28;20115;-39
2022/10/22 17:37:57;;;;;;;2.80;1.50;;;14.90;99.90;;;;;;20745582;28;20489;-39
2022/10/22 17:47:59;;;;;;;4.03;1.38;;;14.70;99.90;;;;;;20729780;28;20537;-39
2022/10/22 17:58:01;;;;;;;2.95;1.60;;;14.60;99.90;;;;;;20719559;28;20349;-38
2022/10/22 18:08:03;;;;;;;3.17;1.20;;;14.40;99.90;;;;;;20717652;28;20038;-39
2022/10/22 18:18:04;;;;;;;3.30;1.33;;;14.40;99.90;;;;;;20745341;28;20061;-39
2022/10/22 18:28:05;;;;;;;6.05;2.47;;;14.20;99.90;;;;;;20734718;28;20045;-39
2022/10/22 18:38:07;;;;;;;3.05;1.65;;;14.00;99.90;;;;;;20732028;28;20046;-39
2022/10/22 18:48:08;;;;;;;2.55;1.30;;;14.00;99.90;;;;;;20721694;28;20107;-39
2022/10/22 18:58:09;;;;;;;4.78;1.90;;;13.90;99.90;;;;;;20747794;28;20053;-39
2022/10/22 19:08:10;;;;;;;3.92;1.52;;;13.80;99.90;;;;;;20722473;28;20036;-39
2022/10/22 19:18:12;;;;;;;4.78;2.38;;;13.80;99.90;;;;;;20728758;28;20049;-39
2022/10/22 19:28:13;;;;;;;4.60;2.45;;;13.60;99.90;;;;;;20725024;28;20105;-39
2022/10/22 19:38:14;;;;;;;4.90;2.00;;;13.50;99.90;;;;;;20725571;28;20054;-39
2022/10/22 19:48:15;;;;;;;4.40;1.88;;;13.50;99.90;;;;;;20733808;28;20034;-39
2022/10/22 19:58:16;;;;;;;8.18;2.67;;;13.50;99.90;;;;;;20746484;28;20057;-39
2022/10/22 20:08:17;;;;;;;6.22;2.78;;;13.40;99.90;;;;;;20730552;28;20378;-39
2022/10/22 20:18:21;;;;;;;4.63;2.70;;;13.40;99.90;;;;;;20724662;28;20304;-39
2022/10/22 20:28:23;;;;;;;7.40;4.18;;;13.30;99.90;;;;;;20708541;28;20870;-39
2022/10/22 20:38:24;;;;;;;8.73;3.67;;;13.30;99.90;;;;;;20688018;28;20568;-39
2022/10/22 20:48:28;;;;;;;6.82;3.53;;;13.30;99.90;;;;;;20669817;28;20057;-39
2022/10/22 20:58:30;;;;;;;5.10;2.25;;;13.30;99.90;;;;;;20679357;28;20058;-39
2022/10/22 21:08:31;;;;;;;6.82;2.42;;;13.20;99.90;;;;;;20678842;28;20923;-39
2022/10/22 21:18:32;;;;;;;5.60;3.30;;;13.20;99.90;;;;;;20670543;28;20136;-39
2022/10/22 21:28:35;;;;;;;4.05;1.83;;;13.20;99.90;;;;;;20677948;28;20554;-39
2022/10/22 21:38:36;;;;;;;4.80;2.15;;;13.20;99.90;;;;;;20664787;28;20045;-39
2022/10/22 21:48:39;;;;;;;3.70;1.92;;;13.30;99.90;;;;;;20688050;28;20469;-38
2022/10/22 21:58:40;;;;;;;5.03;1.58;;;13.30;99.90;;;;;;20690132;28;20123;-39
2022/10/22 22:08:41;;;;;;;4.90;2.30;;;13.30;99.90;;;;;;20677221;28;20061;-39
2022/10/22 22:18:42;;;;;;;3.60;1.95;;;13.30;99.90;;;;;;20674625;28;20128;-39
2022/10/22 22:28:44;;;;;;;5.13;2.58;;;13.30;99.90;;;;;;20660866;28;20456;-39
2022/10/22 22:38:45;;;;;;;8.32;2.95;;;13.30;99.90;;;;;;20662432;28;20058;-39
2022/10/22 22:48:49;;;;;;;5.22;1.75;;;13.30;99.90;;;;;;20647379;28;20053;-39
2022/10/22 22:58:50;;;;;;;9.85;2.80;;;13.30;99.90;;;;;;20667744;28;20133;-39
2022/10/22 23:08:52;;;;;;;4.47;2.10;;;13.30;99.90;;;;;;20663549;28;20053;-39
2022/10/22 23:18:54;;;;;;;5.50;2.42;;;13.30;99.90;;;;;;20662596;28;20058;-39
2022/10/22 23:29:04;;;;;;;5.50;2.50;;;13.30;99.90;;;;;;20656331;28;20108;-39
2022/10/22 23:39:06;;;;;;;5.55;2.55;;;13.30;99.90;;;;;;20703597;28;20240;-39
2022/10/22 23:49:09;;;;;;;4.07;2.20;;;13.30;99.90;;;;;;20716452;28;20670;-39
2022/10/22 23:59:10;;;;;;;3.28;1.95;;;13.20;99.90;;;;;;20704038;28;20066;-39
